Time;durP1;ratioP1;P1;durP2;ratioP2;P2;SDS_P1;SDS_P2;PMS_P1;PMS_P2;Temp;Humidity;BMP_temperature;BMP_pressure;BME280_temperature;BME280_humidity;BME280_pressure;Samples;Min_cycle;Max_cycle;Signal;HPM_P1;HPM_P2
2022/01/23 00:00:19;;;;;;;;;52.00;46.25;3.80;47.70;;;;;;5066590;28;8814;-60
2022/01/23 00:02:50;;;;;;;;;43.25;37.50;3.70;48.40;;;;;;5072044;28;8861;-60
2022/01/23 00:05:19;;;;;;;;;50.75;44.50;3.30;49.20;;;;;;5073569;28;8783;-61
2022/01/23 00:07:46;;;;;;;;;57.00;44.75;3.40;49.80;;;;;;5073617;28;8834;-60
2022/01/23 00:10:12;;;;;;;;;58.50;49.00;3.50;49.90;;;;;;5073250;28;8761;-61
2022/01/23 00:12:53;;;;;;;;;58.00;50.25;3.40;49.90;;;;;;5071187;28;8803;-60
2022/01/23 00:18:03;;;;;;;;;53.50;45.25;3.00;51.00;;;;;;5073268;28;9325;-61
2022/01/23 00:20:29;;;;;;;;;32.00;27.00;3.20;51.40;;;;;;5073180;28;8803;-61
2022/01/23 00:22:59;;;;;;;;;44.00;37.25;3.40;50.60;;;;;;5073057;28;8776;-61
2022/01/23 00:30:57;;;;;;;;;35.00;29.50;2.50;51.50;;;;;;5069565;28;8772;-61
2022/01/23 00:33:24;;;;;;;;;33.25;30.50;2.60;53.00;;;;;;5069287;28;8776;-62
2022/01/23 00:35:50;;;;;;;;;37.00;35.25;2.90;52.10;;;;;;5054620;28;8795;-60
2022/01/23 00:38:17;;;;;;;;;51.00;45.00;2.80;51.80;;;;;;5054068;28;8785;-60
2022/01/23 00:40:45;;;;;;;;;56.50;48.50;2.90;53.10;;;;;;5054309;28;8802;-61
2022/01/23 00:43:26;;;;;;;;;43.00;42.50;3.20;51.50;;;;;;5054210;28;8751;-59
2022/01/23 00:46:07;;;;;;;;;62.50;51.25;3.30;51.60;;;;;;5054091;28;8794;-60
2022/01/23 00:48:36;;;;;;;;;57.50;49.25;3.40;51.10;;;;;;5054513;28;8818;-60
2022/01/23 00:51:01;;;;;;;;;59.00;49.25;3.10;51.10;;;;;;5054143;28;8771;-60
2022/01/23 00:53:27;;;;;;;;;56.25;48.00;3.20;51.50;;;;;;5054388;28;8763;-59
2022/01/23 00:55:53;;;;;;;;;64.25;50.25;3.10;51.30;;;;;;5054022;28;8759;-60
2022/01/23 00:58:19;;;;;;;;;57.00;47.00;3.00;52.50;;;;;;5053901;28;8767;-60
2022/01/23 01:00:45;;;;;;;;;58.00;49.00;3.00;52.30;;;;;;5055707;28;8933;-61
2022/01/23 01:03:10;;;;;;;;;57.25;48.75;3.00;51.90;;;;;;5057991;28;9485;-60
2022/01/23 01:05:36;;;;;;;;;50.25;40.50;2.80;51.90;;;;;;5057932;28;8790;-60
2022/01/23 01:08:04;;;;;;;;;46.00;42.00;2.80;52.80;;;;;;5057892;28;8840;-62
2022/01/23 01:10:49;;;;;;;;;48.50;43.50;2.90;52.90;;;;;;5057527;28;8823;-60
2022/01/23 01:13:15;;;;;;;;;36.00;34.00;3.00;51.80;;;;;;5057697;28;8842;-61
2022/01/23 01:15:58;;;;;;;;;39.00;35.25;3.10;51.20;;;;;;5057740;28;8767;-60
2022/01/23 01:32:09;;;;;;;;;32.75;27.75;3.00;50.90;;;;;;5057595;28;8874;-61
2022/01/23 01:34:41;;;;;;;;;28.50;25.50;3.10;51.00;;;;;;5057726;28;8799;-60
2022/01/23 01:37:09;;;;;;;;;26.75;25.00;2.90;50.20;;;;;;5057649;28;8893;-61
2022/01/23 01:39:35;;;;;;;;;23.75;23.75;3.20;51.00;;;;;;5057502;28;8849;-59
2022/01/23 01:42:01;;;;;;;;;22.50;22.50;3.00;50.90;;;;;;5057242;28;8795;-61
2022/01/23 01:44:27;;;;;;;;;25.75;24.00;3.20;51.00;;;;;;5057298;28;8775;-61
2022/01/23 01:46:53;;;;;;;;;24.00;24.00;3.40;49.80;;;;;;5057034;28;8841;-60
2022/01/23 01:49:28;;;;;;;;;25.50;24.75;3.50;49.50;;;;;;5057462;28;8778;-60
2022/01/23 01:51:56;;;;;;;;;29.00;27.00;3.50;49.90;;;;;;5057157;28;8787;-61
2022/01/23 01:54:24;;;;;;;;;30.00;28.00;3.20;50.10;;;;;;5057268;28;8763;-60
2022/01/23 01:57:04;;;;;;;;;28.50;26.50;2.70;50.70;;;;;;5057219;28;8771;-61
2022/01/23 02:10:38;;;;;;;;;33.75;33.75;2.40;52.70;;;;;;5056762;28;8763;-61
2022/01/23 02:15:58;;;;;;;;;38.00;37.00;2.20;53.10;;;;;;5073411;28;8787;-61
2022/01/23 02:51:14;;;;;;;;;34.50;34.25;2.60;52.10;;;;;;5076101;28;8758;-61
2022/01/23 02:56:21;;;;;;;;;37.25;35.25;2.90;52.10;;;;;;5075928;28;8776;-61
2022/01/23 02:59:00;;;;;;;;;60.75;52.00;3.20;51.20;;;;;;5075909;28;8772;-61
2022/01/23 03:01:30;;;;;;;;;57.00;52.00;3.50;49.80;;;;;;5076052;28;8820;-62
2022/01/23 03:04:01;;;;;;;;;54.50;44.25;3.20;49.80;;;;;;5075991;28;8768;-60
2022/01/23 03:06:53;;;;;;;;;53.75;47.00;3.30;49.60;;;;;;5075805;28;8841;-62
2022/01/23 03:28:50;;;;;;;;;52.50;43.75;3.10;49.50;;;;;;5075414;28;8863;-61
2022/01/23 03:30:51;;;;;;;;;55.75;48.25;3.40;49.40;;;;;;5074694;28;8785;-61
2022/01/23 03:33:17;;;;;;;;;50.00;45.25;3.40;49.50;;;;;;5075410;28;8765;-61
2022/01/23 03:35:43;;;;;;;;;43.00;40.00;3.50;49.20;;;;;;5075154;28;8764;-61
2022/01/23 03:38:09;;;;;;;;;65.25;52.00;3.60;48.40;;;;;;5075041;28;8841;-61
2022/01/23 03:40:35;;;;;;;;;69.25;53.75;3.90;48.10;;;;;;5074962;28;8820;-62
2022/01/23 03:43:09;;;;;;;;;43.25;39.50;3.90;47.50;;;;;;5074945;28;8764;-60
2022/01/23 03:46:19;;;;;;;;;60.00;50.75;3.90;47.50;;;;;;5075299;28;8861;-61
2022/01/23 03:50:51;;;;;;;;;48.75;41.00;4.00;47.40;;;;;;5074874;28;8780;-61
2022/01/23 03:53:17;;;;;;;;;44.25;43.00;4.20;46.50;;;;;;5074841;28;8787;-60
2022/01/23 03:55:43;;;;;;;;;44.75;38.75;4.00;46.60;;;;;;5074769;28;8788;-61
2022/01/23 03:58:09;;;;;;;;;39.25;35.75;3.80;47.40;;;;;;5074734;28;8773;-62
2022/01/23 04:00:36;;;;;;;;;47.00;43.00;3.90;47.20;;;;;;5074905;28;9454;-61
2022/01/23 04:03:02;;;;;;;;;50.00;39.25;3.80;47.40;;;;;;5073606;28;8769;-61
2022/01/23 04:05:28;;;;;;;;;51.50;42.00;3.50;48.20;;;;;;5074639;28;8896;-61
2022/01/23 04:07:54;;;;;;;;;39.50;33.00;3.20;48.10;;;;;;5074871;28;9532;-61
2022/01/23 04:10:22;;;;;;;;;35.25;29.75;3.00;48.80;;;;;;5074822;28;8768;-61
2022/01/23 04:13:10;;;;;;;;;37.75;34.50;2.90;50.30;;;;;;5074503;28;8792;-60
2022/01/23 04:15:52;;;;;;;;;33.50;31.50;3.10;49.20;;;;;;5074595;28;8792;-61
2022/01/23 04:21:19;;;;;;;;;35.50;33.75;3.00;49.90;;;;;;5074721;28;8861;-61
2022/01/23 04:32:25;;;;;;;;;37.00;31.00;2.40;51.40;;;;;;5063033;28;8861;-60
2022/01/23 04:45:40;;;;;;;;;38.50;35.50;3.10;49.10;;;;;;5074344;28;9427;-60
2022/01/23 05:04:29;;;;;;;;;35.00;34.00;2.90;49.50;;;;;;5074188;28;8757;-60
2022/01/23 05:07:00;;;;;;;;;21.25;20.50;2.60;50.10;;;;;;5074095;28;8780;-60
2022/01/23 05:09:28;;;;;;;;;46.25;43.00;2.50;50.60;;;;;;5074057;28;8845;-62
2022/01/23 05:12:08;;;;;;;;;49.50;45.00;2.60;50.40;;;;;;5074011;28;8788;-59
2022/01/23 05:14:38;;;;;;;;;32.75;28.50;2.20;50.90;;;;;;5074023;28;8760;-59
2022/01/23 05:17:06;;;;;;;;;39.00;38.50;2.20;51.00;;;;;;5074146;28;8856;-60
2022/01/23 05:19:33;;;;;;;;;37.25;31.75;1.80;52.60;;;;;;5073830;28;8902;-60
2022/01/23 05:22:46;;;;;;;;;33.00;30.25;1.60;53.00;;;;;;5074124;28;8756;-62
2022/01/23 05:25:12;;;;;;;;;31.75;28.00;2.00;53.00;;;;;;5068143;28;8853;-61
2022/01/23 05:27:38;;;;;;;;;24.50;24.50;2.00;52.00;;;;;;5073935;28;8776;-61
2022/01/23 05:30:05;;;;;;;;;28.50;27.00;2.40;51.50;;;;;;5073781;28;8788;-67
2022/01/23 05:32:42;;;;;;;;;26.50;23.00;2.70;50.70;;;;;;5074045;28;9487;-64
2022/01/23 05:35:10;;;;;;;;;25.50;24.50;2.80;49.50;;;;;;5074122;28;8752;-62
2022/01/23 05:37:37;;;;;;;;;30.75;28.50;2.30;50.50;;;;;;5074032;28;9798;-63
2022/01/23 05:40:05;;;;;;;;;30.50;30.50;2.30;50.80;;;;;;5073632;28;9001;-60
2022/01/23 05:42:31;;;;;;;;;27.75;27.25;2.20;51.30;;;;;;5073914;28;8772;-63
2022/01/23 05:44:57;;;;;;;;;31.00;31.00;2.00;51.90;;;;;;5073545;28;9411;-61
2022/01/23 05:47:23;;;;;;;;;25.75;22.50;2.00;52.60;;;;;;5076266;28;8804;-61
2022/01/23 05:49:48;;;;;;;;;23.75;22.75;2.00;52.00;;;;;;5077243;28;8772;-62
2022/01/23 05:52:15;;;;;;;;;32.25;30.75;1.40;53.20;;;;;;5077137;28;8791;-59
2022/01/23 05:54:41;;;;;;;;;25.25;20.25;1.70;53.70;;;;;;5077138;28;8797;-60
2022/01/23 05:57:07;;;;;;;;;33.00;31.00;2.00;53.40;;;;;;5077125;28;8749;-61
2022/01/23 05:59:32;;;;;;;;;39.25;36.00;2.40;52.30;;;;;;5076938;28;8849;-60
2022/01/23 06:01:58;;;;;;;;;27.75;27.75;2.30;52.70;;;;;;5077238;28;8768;-61
2022/01/23 06:04:25;;;;;;;;;30.25;30.25;2.50;52.50;;;;;;5076906;28;8772;-60
2022/01/23 06:06:54;;;;;;;;;29.75;28.25;2.70;51.80;;;;;;5076952;28;8756;-60
2022/01/23 06:09:21;;;;;;;;;29.00;29.00;2.40;51.90;;;;;;5077130;28;8764;-61
2022/01/23 06:11:49;;;;;;;;;23.00;19.75;2.40;52.90;;;;;;5076884;28;8806;-60
2022/01/23 06:14:14;;;;;;;;;25.00;24.50;2.50;53.00;;;;;;5077082;28;8804;-60
2022/01/23 06:16:40;;;;;;;;;24.25;22.50;2.50;52.40;;;;;;5076641;28;9289;-61
2022/01/23 06:19:07;;;;;;;;;24.25;24.25;2.70;52.80;;;;;;5076665;28;8761;-60
2022/01/23 06:21:33;;;;;;;;;31.75;30.50;2.70;52.20;;;;;;5076609;28;8764;-60
2022/01/23 06:26:40;;;;;;;;;25.75;25.75;2.30;52.70;;;;;;5076770;28;8764;-59
2022/01/23 06:29:06;;;;;;;;;31.50;27.50;2.00;54.00;;;;;;5076793;28;8764;-60
2022/01/23 06:31:32;;;;;;;;;32.25;30.50;1.90;55.00;;;;;;5076619;28;8768;-60
2022/01/23 06:34:00;;;;;;;;;17.25;14.00;1.90;55.80;;;;;;5076701;28;8760;-62
2022/01/23 06:36:26;;;;;;;;;24.75;22.50;2.00;54.70;;;;;;5076576;28;8768;-61
2022/01/23 06:38:51;;;;;;;;;17.00;17.00;1.70;55.70;;;;;;5076337;28;8787;-61
2022/01/23 06:41:17;;;;;;;;;24.00;24.00;1.90;55.60;;;;;;5076180;28;8796;-60
2022/01/23 06:43:43;;;;;;;;;28.50;27.50;2.40;54.80;;;;;;5076483;28;8764;-63
2022/01/23 06:46:09;;;;;;;;;24.75;23.00;2.50;53.40;;;;;;5076377;28;8787;-60
2022/01/23 06:48:34;;;;;;;;;27.25;26.50;2.40;52.70;;;;;;5076416;28;8832;-62
2022/01/23 06:51:00;;;;;;;;;9.00;6.75;2.80;52.80;;;;;;5076066;28;8780;-62
2022/01/23 06:53:26;;;;;;;;;33.50;30.00;2.50;52.00;;;;;;5075904;28;8772;-59
2022/01/23 06:55:52;;;;;;;;;26.75;26.75;2.70;52.70;;;;;;5076145;28;8783;-61
2022/01/23 06:58:18;;;;;;;;;35.75;31.00;2.90;52.10;;;;;;5075238;28;8784;-60
2022/01/23 07:00:44;;;;;;;;;33.00;28.00;3.30;51.30;;;;;;5076037;28;8796;-60
2022/01/23 07:03:10;;;;;;;;;33.50;29.00;3.30;50.40;;;;;;5075682;28;9403;-59
2022/01/23 07:05:36;;;;;;;;;45.25;43.00;3.00;50.70;;;;;;5075732;28;8768;-61
2022/01/23 07:08:02;;;;;;;;;55.00;48.75;2.80;52.00;;;;;;5075873;28;8759;-60
2022/01/23 07:10:28;;;;;;;;;59.75;52.25;2.60;52.50;;;;;;5075887;28;8765;-60
2022/01/23 07:12:54;;;;;;;;;50.00;42.25;2.50;53.00;;;;;;5075490;28;8800;-61
2022/01/23 07:15:20;;;;;;;;;44.50;39.75;3.00;52.50;;;;;;5075518;28;8799;-60
2022/01/23 07:17:46;;;;;;;;;44.25;40.25;3.10;51.10;;;;;;5073892;28;8816;-60
2022/01/23 07:20:11;;;;;;;;;44.25;40.50;2.90;51.80;;;;;;5075394;28;8815;-60
2022/01/23 07:22:37;;;;;;;;;47.50;37.50;3.10;52.80;;;;;;5075686;28;8784;-60
2022/01/23 07:25:05;;;;;;;;;36.75;31.00;3.40;50.80;;;;;;5075631;28;8768;-60
2022/01/23 07:27:48;;;;;;;;;40.75;38.25;3.40;50.50;;;;;;5075487;28;9577;-62
2022/01/23 07:30:38;;;;;;;;;36.50;31.50;3.20;51.00;;;;;;5075226;28;8768;-60
2022/01/23 07:33:04;;;;;;;;;36.50;36.00;3.00;51.40;;;;;;5075494;28;8784;-61
2022/01/23 07:35:30;;;;;;;;;37.75;34.25;2.50;52.80;;;;;;5075081;28;8768;-61
2022/01/23 07:37:56;;;;;;;;;48.00;40.00;2.80;52.90;;;;;;5075021;28;8788;-59
2022/01/23 07:40:22;;;;;;;;;41.25;38.75;3.00;52.00;;;;;;5075176;28;8823;-60
2022/01/23 07:42:47;;;;;;;;;40.25;35.75;3.10;51.70;;;;;;5075238;28;8768;-61
2022/01/23 07:45:13;;;;;;;;;36.50;36.25;3.10;51.90;;;;;;5075264;28;8887;-60
2022/01/23 07:47:39;;;;;;;;;41.00;38.00;3.20;52.00;;;;;;5074954;28;8792;-61
2022/01/23 07:50:07;;;;;;;;;45.00;42.25;3.60;50.80;;;;;;5075148;28;8790;-61
2022/01/23 07:52:35;;;;;;;;;48.50;44.50;4.20;49.80;;;;;;5074886;28;8776;-61
2022/01/23 07:55:07;;;;;;;;;45.50;44.00;4.20;48.40;;;;;;5075063;28;8913;-62
2022/01/23 07:57:34;;;;;;;;;46.00;42.50;4.20;49.40;;;;;;5074796;28;8772;-62
2022/01/23 08:00:00;;;;;;;;;39.75;37.75;3.50;49.70;;;;;;5074910;28;8961;-60
2022/01/23 08:02:27;;;;;;;;;41.75;35.50;3.40;51.10;;;;;;5067373;28;8787;-58
2022/01/23 08:04:53;;;;;;;;;39.50;36.00;3.20;50.60;;;;;;5057257;28;8799;-61
2022/01/23 08:07:36;;;;;;;;;44.25;42.25;3.20;51.70;;;;;;5060731;28;8804;-61
2022/01/23 08:10:06;;;;;;;;;46.75;42.50;3.20;51.50;;;;;;5063260;28;8779;-59
2022/01/23 08:12:32;;;;;;;;;42.50;40.50;3.70;51.30;;;;;;5060730;28;8913;-61
2022/01/23 08:14:59;;;;;;;;;44.75;40.00;3.90;50.30;;;;;;5068597;28;8780;-60
2022/01/23 08:17:26;;;;;;;;;48.50;44.25;3.60;50.10;;;;;;5073243;28;8812;-60
2022/01/23 08:19:53;;;;;;;;;46.00;37.50;3.40;51.20;;;;;;5072964;28;8797;-60
2022/01/23 08:22:21;;;;;;;;;36.75;35.25;3.10;51.80;;;;;;5073152;28;8845;-59
2022/01/23 08:24:48;;;;;;;;;43.00;40.50;3.30;52.00;;;;;;5073435;28;8749;-63
2022/01/23 08:27:14;;;;;;;;;43.00;40.75;3.70;51.90;;;;;;5073279;28;8771;-60
2022/01/23 08:29:40;;;;;;;;;49.00;43.25;3.90;51.10;;;;;;5069140;28;8741;-60
2022/01/23 08:32:07;;;;;;;;;53.00;43.25;4.10;50.40;;;;;;5073385;28;8756;-60
2022/01/23 08:34:34;;;;;;;;;62.25;52.00;4.30;50.40;;;;;;5072848;28;8748;-60
2022/01/23 08:37:01;;;;;;;;;62.00;51.25;4.50;49.80;;;;;;5073267;28;8748;-61
2022/01/23 08:39:27;;;;;;;;;66.25;53.50;4.40;49.90;;;;;;5072882;28;8748;-62
2022/01/23 08:41:53;;;;;;;;;62.50;48.25;4.60;49.70;;;;;;5071797;28;8781;-59
2022/01/23 08:44:22;;;;;;;;;57.75;46.50;4.90;49.60;;;;;;5065257;28;8776;-60
2022/01/23 08:46:48;;;;;;;;;66.00;54.00;4.90;49.30;;;;;;5072796;28;9456;-61
2022/01/23 08:49:17;;;;;;;;;63.25;51.50;4.80;49.20;;;;;;5073113;28;9344;-62
2022/01/23 08:51:44;;;;;;;;;57.25;47.75;5.20;48.70;;;;;;5074253;28;8853;-60
2022/01/23 08:54:10;;;;;;;;;58.75;48.25;5.30;47.60;;;;;;5073983;28;8764;-61
2022/01/23 08:56:37;;;;;;;;;37.50;32.00;5.10;48.30;;;;;;5071951;28;8773;-61
2022/01/23 08:59:04;;;;;;;;;50.75;45.75;5.20;48.00;;;;;;5067194;28;8903;-59
2022/01/23 09:01:30;;;;;;;;;68.50;56.00;5.10;48.50;;;;;;5071889;28;8903;-60
2022/01/23 09:03:56;;;;;;;;;70.50;54.50;5.30;48.00;;;;;;5072409;28;8858;-62
2022/01/23 09:06:23;;;;;;;;;60.25;49.00;5.50;47.70;;;;;;5068868;28;8795;-61
2022/01/23 09:08:51;;;;;;;;;64.75;52.75;5.60;47.60;;;;;;5068655;28;9475;-62
2022/01/23 09:11:37;;;;;;;;;64.25;51.75;5.70;47.10;;;;;;5070131;28;8841;-61
2022/01/23 09:14:07;;;;;;;;;57.00;50.00;5.90;46.70;;;;;;5071135;28;8823;-61
2022/01/23 09:16:38;;;;;;;;;57.00;48.25;6.20;45.90;;;;;;5070777;28;8799;-60
2022/01/23 09:19:05;;;;;;;;;64.00;49.25;6.20;45.90;;;;;;5071158;28;8784;-61
2022/01/23 09:21:31;;;;;;;;;76.25;62.50;6.20;46.50;;;;;;5074457;28;8804;-64
2022/01/23 09:23:57;;;;;;;;;85.75;64.00;5.90;46.90;;;;;;5077509;28;8800;-67
2022/01/23 09:26:24;;;;;;;;;65.25;54.00;5.50;46.90;;;;;;5077294;28;8779;-68
2022/01/23 09:28:54;;;;;;;;;54.75;46.00;5.50;46.60;;;;;;5077345;28;8772;-66
2022/01/23 09:31:31;;;;;;;;;54.75;48.25;5.40;47.00;;;;;;5077194;28;8884;-64
2022/01/23 09:33:57;;;;;;;;;65.25;52.00;5.40;47.30;;;;;;5070547;28;9464;-66
2022/01/23 09:36:24;;;;;;;;;44.75;42.00;5.40;46.90;;;;;;5074822;28;8769;-64
2022/01/23 09:38:50;;;;;;;;;46.50;42.00;5.00;47.00;;;;;;5075827;28;8899;-65
2022/01/23 09:41:17;;;;;;;;;56.00;45.75;5.10;47.60;;;;;;5075824;28;8919;-64
2022/01/23 09:43:45;;;;;;;;;58.25;47.25;5.20;47.20;;;;;;5075832;28;8775;-65
2022/01/23 09:46:13;;;;;;;;;51.50;42.00;5.60;47.20;;;;;;5075934;28;8789;-64
2022/01/23 09:48:42;;;;;;;;;45.00;42.50;5.80;46.50;;;;;;5075807;28;8881;-64
2022/01/23 09:51:09;;;;;;;;;58.25;47.00;6.10;45.90;;;;;;5076342;28;8854;-65
2022/01/23 09:53:38;;;;;;;;;41.00;37.50;6.30;45.10;;;;;;5077059;28;9411;-66
2022/01/23 09:56:05;;;;;;;;;47.50;44.00;6.10;44.60;;;;;;5076986;28;8903;-65
2022/01/23 09:58:38;;;;;;;;;43.25;38.25;6.10;46.00;;;;;;5076567;28;8768;-63
2022/01/23 10:01:04;;;;;;;;;40.25;37.75;6.00;44.80;;;;;;5073717;28;8877;-65
2022/01/23 10:03:30;;;;;;;;;43.00;37.75;5.80;45.40;;;;;;5071237;28;8785;-65
2022/01/23 10:05:56;;;;;;;;;46.00;39.25;5.70;46.20;;;;;;5075677;28;8776;-63
2022/01/23 10:08:27;;;;;;;;;45.00;41.00;6.10;45.80;;;;;;5070093;28;8760;-63
2022/01/23 10:10:55;;;;;;;;;49.00;43.25;6.00;45.60;;;;;;5071965;28;8830;-63
2022/01/23 10:13:23;;;;;;;;;39.50;32.50;5.80;45.40;;;;;;5069653;28;8819;-65
2022/01/23 10:15:49;;;;;;;;;39.50;32.25;5.60;46.20;;;;;;5067760;28;8818;-63
2022/01/23 10:18:17;;;;;;;;;31.50;26.25;5.80;46.40;;;;;;5069254;28;8899;-63
2022/01/23 10:20:43;;;;;;;;;47.25;40.50;5.90;46.10;;;;;;5073067;28;8804;-63
2022/01/23 10:23:10;;;;;;;;;47.50;41.25;6.20;46.00;;;;;;5075233;28;8772;-64
2022/01/23 10:25:43;;;;;;;;;47.25;42.00;6.20;44.30;;;;;;5075144;28;8788;-66
2022/01/23 10:28:13;;;;;;;;;43.25;39.75;7.10;43.30;;;;;;5075259;28;8895;-68
2022/01/23 10:30:46;;;;;;;;;58.00;44.50;8.20;41.00;;;;;;5072760;28;8772;-64
2022/01/23 10:33:25;;;;;;;;;46.00;35.25;9.30;40.40;;;;;;5070394;28;8775;-67
2022/01/23 10:36:00;;;;;;;;;50.75;41.50;11.10;37.20;;;;;;5072644;28;8745;-66
2022/01/23 10:38:30;;;;;;;;;46.00;39.00;12.20;34.10;;;;;;5071427;28;8784;-64
2022/01/23 10:41:47;;;;;;;;;50.50;40.50;15.60;30.80;;;;;;5070560;28;8911;-65
2022/01/23 10:49:59;;;;;;;;;48.50;40.00;15.20;28.90;;;;;;5068404;28;8760;-68
2022/01/23 10:52:38;;;;;;;;;48.67;38.67;17.80;27.00;;;;;;5056101;28;8783;-66
2022/01/23 10:55:13;;;;;;;;;45.67;38.00;20.10;24.40;;;;;;5060339;28;8778;-68
2022/01/23 10:57:45;;;;;;;;;44.33;38.00;20.30;24.10;;;;;;5064782;28;8767;-68
2022/01/23 11:00:22;;;;;;;;;34.67;32.67;20.70;23.30;;;;;;5062273;28;8825;-68
2022/01/23 11:02:48;;;;;;;;;35.33;31.33;20.90;21.10;;;;;;5066997;28;8815;-69
2022/01/23 11:05:19;;;;;;;;;31.00;29.00;19.70;22.70;;;;;;5055526;28;8786;-66
2022/01/23 11:07:48;;;;;;;;;40.00;34.00;21.30;22.10;;;;;;5066846;28;8817;-66
2022/01/23 11:10:22;;;;;;;;;36.33;34.00;22.40;20.20;;;;;;5058093;28;8838;-65
2022/01/23 11:18:16;;;;;;;;;32.00;31.00;22.00;21.30;;;;;;5060495;28;8812;-63
2022/01/23 11:20:47;;;;;;;;;36.00;33.67;20.00;22.10;;;;;;5060626;28;8819;-65
2022/01/23 11:23:27;;;;;;;;;40.33;35.00;18.00;23.90;;;;;;5064556;28;8772;-64
2022/01/23 11:25:52;;;;;;;;;38.00;33.67;17.90;24.40;;;;;;5059761;28;8805;-66
2022/01/23 11:28:28;;;;;;;;;43.33;35.67;17.60;24.90;;;;;;5062107;28;8790;-66
2022/01/23 11:30:54;;;;;;;;;49.25;41.75;18.30;23.50;;;;;;5065561;28;8815;-66
2022/01/23 11:33:21;;;;;;;;;42.00;34.50;16.50;25.20;;;;;;5058196;28;8816;-68
2022/01/23 11:35:48;;;;;;;;;25.75;24.25;14.80;27.00;;;;;;5063887;28;8776;-65
2022/01/23 11:38:17;;;;;;;;;31.00;31.00;14.00;28.00;;;;;;5061116;28;8804;-64
2022/01/23 11:54:48;;;;;;;;;41.75;36.75;12.80;29.90;;;;;;5068778;28;8812;-62
2022/01/23 11:57:33;;;;;;;;;37.50;33.25;16.30;27.00;;;;;;5061567;28;8803;-62
2022/01/23 12:00:03;;;;;;;;;39.67;34.67;21.20;22.90;;;;;;5064384;28;8841;-63
2022/01/23 12:02:41;;;;;;;;;34.00;31.00;24.70;20.00;;;;;;5057228;28;8898;-62
2022/01/23 12:05:14;;;;;;;;;42.33;36.00;26.50;18.20;;;;;;5054310;28;8859;-62
2022/01/23 12:07:41;;;;;;;;;45.33;37.00;24.70;17.90;;;;;;5054636;28;8771;-62
2022/01/23 12:10:24;;;;;;;;;32.00;30.00;22.30;20.10;;;;;;5054363;28;8783;-62
2022/01/23 12:13:10;;;;;;;;;33.67;31.67;24.20;19.50;;;;;;5060285;28;8789;-62
2022/01/23 12:18:29;;;;;;;;;43.00;38.33;25.70;18.60;;;;;;5074277;28;8816;-63
2022/01/23 12:20:55;;;;;;;;;40.33;37.00;25.50;17.10;;;;;;5054228;28;8817;-62
2022/01/23 12:23:22;;;;;;;;;33.33;32.33;24.70;18.60;;;;;;5054585;28;8747;-62
2022/01/23 12:25:50;;;;;;;;;44.00;37.00;26.50;17.50;;;;;;5054516;28;8793;-64
2022/01/23 12:28:24;;;;;;;;;43.00;36.67;28.50;17.00;;;;;;5054385;28;8775;-62
2022/01/23 12:30:59;;;;;;;;;37.33;31.67;29.70;16.20;;;;;;5053875;28;8848;-62
2022/01/23 12:33:39;;;;;;;;;33.33;32.00;30.60;15.60;;;;;;5053911;28;8771;-63
2022/01/23 12:36:27;;;;;;;;;32.33;31.33;29.80;14.70;;;;;;5054394;28;9579;-62
2022/01/23 12:38:58;;;;;;;;;38.00;34.00;28.70;15.40;;;;;;5070205;28;8867;-62
2022/01/23 12:41:51;;;;;;;;;30.33;29.67;29.70;15.70;;;;;;5074025;28;8876;-61
2022/01/23 12:44:23;;;;;;;;;40.00;36.00;29.90;15.50;;;;;;5057606;28;8781;-61
2022/01/23 12:46:56;;;;;;;;;30.00;30.00;29.80;15.00;;;;;;5063557;28;8846;-61
2022/01/23 12:49:22;;;;;;;;;39.00;34.67;30.30;15.10;;;;;;5073966;28;8886;-62
2022/01/23 12:52:18;;;;;;;;;37.00;34.00;29.70;14.90;;;;;;5067415;28;8891;-62
2022/01/23 12:54:47;;;;;;;;;34.33;32.00;29.20;15.50;;;;;;5053013;28;8803;-63
2022/01/23 12:57:16;;;;;;;;;35.33;33.00;29.10;15.70;;;;;;5066950;28;8837;-65
2022/01/23 12:59:49;;;;;;;;;26.33;26.33;29.80;15.00;;;;;;5058590;28;8787;-65
2022/01/23 13:02:18;;;;;;;;;33.00;31.33;28.80;14.60;;;;;;5069318;28;8789;-68
2022/01/23 13:04:47;;;;;;;;;32.67;31.00;27.00;15.20;;;;;;5057919;28;8860;-67
2022/01/23 13:07:43;;;;;;;;;37.00;33.33;26.60;15.50;;;;;;5063453;28;8770;-68
2022/01/23 13:13:04;;;;;;;;;29.00;29.00;27.10;16.50;;;;;;5059959;28;9473;-66
2022/01/23 13:31:58;;;;;;;;;30.67;30.00;27.80;15.60;;;;;;5077368;28;8777;-65
2022/01/23 13:34:35;;;;;;;;;33.33;32.00;27.90;15.60;;;;;;5077292;28;8811;-65
2022/01/23 13:37:09;;;;;;;;;22.00;22.00;27.00;15.80;;;;;;5076993;28;8775;-66
2022/01/23 13:39:43;;;;;;;;;31.33;30.33;27.40;15.80;;;;;;5077133;28;8787;-66
2022/01/23 13:54:15;;;;;;;;;36.67;33.67;25.70;16.40;;;;;;5035157;28;8732;-65
2022/01/23 13:59:16;;;;;;;;;35.67;33.00;25.00;16.00;;;;;;5034940;28;8743;-65
2022/01/23 14:02:25;;;;;;;;;39.67;35.67;24.80;16.50;;;;;;5034788;28;8929;-64
2022/01/23 14:04:37;;;;;;;;;36.67;34.00;25.20;16.60;;;;;;5032068;28;8834;-65
2022/01/23 14:07:03;;;;;;;;;26.33;26.33;24.50;16.60;;;;;;5034587;28;8784;-65
2022/01/23 14:09:41;;;;;;;;;50.00;40.00;21.70;18.60;;;;;;5047696;28;8809;-65
2022/01/23 14:12:10;;;;;;;;;46.67;39.00;19.50;20.80;;;;;;5074525;28;8776;-65
2022/01/23 14:14:35;;;;;;;;;40.33;33.67;17.40;22.80;;;;;;5061998;28;8857;-65
2022/01/23 14:17:14;;;;;;;;;40.50;35.25;16.10;23.90;;;;;;5054122;28;8790;-65
2022/01/23 14:19:41;;;;;;;;;54.25;44.00;15.00;25.30;;;;;;5056382;28;8755;-64
2022/01/23 14:22:07;;;;;;;;;51.75;43.50;14.10;26.70;;;;;;5056452;28;8783;-64
2022/01/23 14:24:36;;;;;;;;;52.75;43.50;13.40;27.50;;;;;;5056399;28;8802;-65
2022/01/23 14:27:06;;;;;;;;;60.00;48.25;12.30;29.10;;;;;;5056364;28;8763;-66
2022/01/23 14:29:46;;;;;;;;;59.00;47.00;11.70;30.00;;;;;;5056338;28;8959;-65
2022/01/23 14:32:35;;;;;;;;;60.50;47.50;11.30;31.20;;;;;;5056344;28;8783;-65
2022/01/23 14:35:13;;;;;;;;;55.75;45.25;11.10;31.50;;;;;;5056161;28;8783;-65
2022/01/23 14:37:41;;;;;;;;;54.00;44.50;11.00;31.30;;;;;;5056395;28;8782;-66
2022/01/23 14:40:08;;;;;;;;;58.50;46.75;10.50;31.90;;;;;;5056252;28;8794;-66
2022/01/23 14:42:34;;;;;;;;;61.25;51.75;10.00;33.30;;;;;;5056022;28;8774;-65
2022/01/23 14:45:07;;;;;;;;;63.75;49.75;9.60;34.40;;;;;;5065646;28;9432;-65
2022/01/23 14:47:39;;;;;;;;;64.25;50.75;9.50;34.60;;;;;;5076027;28;8796;-65
2022/01/23 14:50:12;;;;;;;;;58.25;48.50;9.40;34.20;;;;;;5075975;28;8961;-64
2022/01/23 14:52:40;;;;;;;;;64.00;52.00;9.50;34.50;;;;;;5076171;28;8776;-64
2022/01/23 14:55:08;;;;;;;;;59.00;50.50;9.30;34.80;;;;;;5075732;28;8796;-66
2022/01/23 14:57:35;;;;;;;;;62.50;49.75;9.10;35.10;;;;;;5076157;28;8764;-65
2022/01/23 15:00:05;;;;;;;;;64.50;53.00;9.00;35.40;;;;;;5075919;28;9470;-65
2022/01/23 15:02:31;;;;;;;;;67.50;56.50;9.00;35.70;;;;;;5075695;28;8799;-65
2022/01/23 15:04:59;;;;;;;;;71.00;57.50;9.10;35.80;;;;;;5075648;28;8776;-65
2022/01/23 15:07:25;;;;;;;;;71.00;56.75;9.00;35.70;;;;;;5075869;28;8761;-64
2022/01/23 15:09:51;;;;;;;;;61.25;49.75;9.00;36.00;;;;;;5075731;28;9577;-64
2022/01/23 15:12:18;;;;;;;;;55.00;45.25;8.90;35.80;;;;;;5075596;28;8788;-64
2022/01/23 15:14:44;;;;;;;;;67.25;54.50;8.80;36.10;;;;;;5067709;28;8787;-64
2022/01/23 15:17:10;;;;;;;;;56.00;48.50;8.70;36.50;;;;;;5055603;28;8806;-65
2022/01/23 15:19:36;;;;;;;;;64.50;52.00;8.30;36.40;;;;;;5054821;28;8880;-64
2022/01/23 15:22:02;;;;;;;;;51.25;45.25;8.20;37.30;;;;;;5055389;28;8771;-64
2022/01/23 15:24:28;;;;;;;;;58.00;48.75;8.30;37.60;;;;;;5055289;28;8767;-67
2022/01/23 15:26:54;;;;;;;;;65.00;52.00;8.20;37.60;;;;;;5055484;28;8767;-64
2022/01/23 15:29:20;;;;;;;;;62.50;50.50;8.10;38.00;;;;;;5055135;28;9417;-63
2022/01/23 15:31:47;;;;;;;;;65.00;52.50;8.10;38.10;;;;;;5055141;28;8794;-65
2022/01/23 15:34:15;;;;;;;;;71.75;58.75;8.10;38.10;;;;;;5054417;28;8775;-64
2022/01/23 15:36:42;;;;;;;;;78.00;63.25;8.10;38.00;;;;;;5055023;28;8779;-66
2022/01/23 15:39:08;;;;;;;;;79.25;63.25;8.10;38.40;;;;;;5054912;28;8849;-65
2022/01/23 15:41:34;;;;;;;;;92.50;70.75;8.10;38.60;;;;;;5055178;28;8798;-65
2022/01/23 15:44:00;;;;;;;;;95.75;83.00;8.10;38.70;;;;;;5056038;28;8774;-65
2022/01/23 15:46:26;;;;;;;;;106.00;88.25;8.00;38.40;;;;;;5075193;28;8792;-65
2022/01/23 15:48:51;;;;;;;;;100.00;83.75;8.00;38.60;;;;;;5075281;28;8856;-65
2022/01/23 15:51:18;;;;;;;;;106.50;92.00;8.00;38.80;;;;;;5074757;28;8786;-66
2022/01/23 15:53:43;;;;;;;;;109.25;101.25;8.00;39.00;;;;;;5074883;28;8757;-65
2022/01/23 15:56:09;;;;;;;;;107.00;97.00;8.00;38.90;;;;;;5074648;28;8769;-65
2022/01/23 15:58:35;;;;;;;;;107.25;96.75;8.00;39.10;;;;;;5074707;28;8941;-65
2022/01/23 16:01:02;;;;;;;;;123.25;110.25;7.90;39.40;;;;;;5074412;28;8792;-65
2022/01/23 16:03:28;;;;;;;;;135.00;120.50;7.80;39.50;;;;;;5074602;28;8845;-65
2022/01/23 16:05:56;;;;;;;;;125.00;113.00;7.80;39.90;;;;;;5074599;28;8826;-65
2022/01/23 16:08:22;;;;;;;;;117.00;112.50;7.80;39.70;;;;;;5074530;28;8773;-65
2022/01/23 16:10:48;;;;;;;;;129.00;115.25;7.70;39.60;;;;;;5074430;28;8791;-65